Terminal Aerodrome Forecast
Issued by NWS

Home | Current Version | Previous Version | Text Only | Print | Product List | Glossary On
Versions: 1 2 3 4 5 6 7 8 9 10 11 12 13 14 15 16
334
FTAK31 PAJN 292338
TAFAJN
TAF
PAJN 292338Z 3000/3024 09010KT P6SM -SHRA FEW015 BKN035 BKN050
      TEMPO 3000/3004 15010KT 6SM -SHRAPL SCT015 BKN025 OVC040
     FM300500 10006KT P6SM SCT030 OVC060
     FM301500 11010G20KT P6SM -RA SCT025 OVC040
     FM302100 10020G30KT 3SM RA BKN010 OVC020 WS020/15045KT=

USA.gov is the U.S. government's official web portal to all federal, state and local government web resources and services.